createdAt,value
2018-09-03T00:00:23.944Z,8.77
2018-09-03T00:02:52.758Z,8.30
2018-09-03T00:05:22.471Z,8.60
2018-09-03T00:07:52.019Z,9.23
2018-09-03T00:10:20.691Z,8.70
2018-09-03T00:12:49.489Z,8.77
2018-09-03T00:15:18.370Z,8.37
2018-09-03T00:17:47.171Z,7.80
2018-09-03T00:20:15.886Z,8.70
2018-09-03T00:22:44.611Z,8.50
2018-09-03T00:25:13.373Z,8.77
2018-09-03T00:27:43.102Z,9.53
2018-09-03T00:30:11.795Z,8.83
2018-09-03T00:32:45.892Z,9.40
2018-09-03T00:35:19.806Z,9.07
2018-09-03T00:37:53.879Z,9.10
2018-09-03T00:40:28.498Z,9.47
2018-09-03T00:43:02.331Z,9.43
2018-09-03T00:45:36.377Z,9.00
2018-09-03T00:48:05.162Z,8.47
2018-09-03T00:50:33.956Z,8.90
2018-09-03T00:53:02.784Z,8.57
2018-09-03T00:55:32.319Z,9.33
2018-09-03T00:58:01.140Z,8.90
2018-09-03T01:00:29.799Z,8.60
2018-09-03T01:02:58.499Z,9.07
2018-09-03T01:05:27.277Z,9.03
2018-09-03T01:07:56.061Z,9.17
2018-09-03T01:10:25.607Z,8.70
2018-09-03T01:12:54.372Z,8.63
2018-09-03T01:15:23.589Z,8.83
2018-09-03T01:17:52.404Z,9.13
2018-09-03T01:20:22.207Z,9.60
2018-09-03T01:22:50.909Z,8.93
2018-09-03T01:25:19.745Z,8.70
2018-09-03T01:27:49.170Z,8.47
2018-09-03T01:30:17.998Z,8.80
2018-09-03T01:32:46.815Z,9.77
2018-09-03T01:35:15.528Z,9.13
2018-09-03T01:37:44.547Z,9.30
2018-09-03T01:40:13.339Z,8.97
2018-09-03T01:42:42.215Z,8.93
2018-09-03T01:45:11.007Z,9.50
2018-09-03T01:47:39.922Z,9.40
2018-09-03T01:50:08.831Z,9.00
2018-09-03T01:52:37.591Z,9.20
2018-09-03T01:55:06.474Z,9.33
2018-09-03T01:57:35.130Z,9.40
2018-09-03T02:00:04.527Z,9.17
2018-09-03T02:02:33.393Z,10.00
2018-09-03T02:05:02.104Z,9.47
2018-09-03T02:07:30.883Z,9.17
2018-09-03T02:09:59.618Z,10.30
2018-09-03T02:12:28.391Z,10.50
2018-09-03T02:14:57.118Z,10.80
2018-09-03T02:17:25.957Z,9.93
2018-09-03T02:19:54.766Z,10.60
2018-09-03T02:22:23.572Z,9.67
2018-09-03T02:24:52.417Z,10.10
2018-09-03T02:27:22.554Z,9.77
2018-09-03T02:29:51.550Z,9.73
2018-09-03T02:32:20.398Z,10.70
2018-09-03T02:34:49.616Z,9.67
2018-09-03T02:37:18.501Z,10.90
2018-09-03T02:39:47.411Z,10.30
2018-09-03T02:42:16.152Z,10.70
2018-09-03T02:44:44.904Z,10.63
2018-09-03T02:47:13.609Z,9.23
2018-09-03T02:49:42.372Z,9.60
2018-09-03T02:52:11.162Z,10.10
2018-09-03T02:54:39.960Z,10.27
2018-09-03T02:57:08.672Z,10.30
2018-09-03T02:59:37.538Z,10.10
2018-09-03T03:02:07.719Z,10.47
2018-09-03T03:04:36.410Z,10.50
2018-09-03T03:07:05.454Z,10.67
2018-09-03T03:09:34.343Z,10.00
2018-09-03T03:12:03.297Z,11.13
2018-09-03T03:14:32.005Z,10.27
2018-09-03T03:17:01.507Z,9.73
2018-09-03T03:19:30.347Z,10.87
2018-09-03T03:21:59.001Z,10.47
2018-09-03T03:24:27.796Z,9.90
2018-09-03T03:26:56.473Z,10.57
2018-09-03T03:29:25.310Z,10.43
2018-09-03T03:31:54.125Z,9.70
2018-09-03T03:34:22.765Z,9.87
2018-09-03T03:36:51.484Z,10.07
2018-09-03T03:39:20.211Z,10.23
2018-09-03T03:41:48.848Z,10.60
2018-09-03T03:44:18.050Z,10.33
2018-09-03T03:46:46.947Z,10.87
2018-09-03T03:49:15.745Z,9.63
2018-09-03T03:51:44.728Z,10.60
2018-09-03T03:54:13.524Z,10.50
2018-09-03T03:56:42.279Z,10.10
2018-09-03T03:59:11.109Z,10.33
2018-09-03T04:01:40.047Z,10.20
2018-09-03T04:04:08.812Z,9.80
2018-09-03T04:06:37.696Z,10.57
2018-09-03T04:09:09.278Z,9.90
2018-09-03T04:11:38.075Z,10.53
2018-09-03T04:14:06.825Z,10.23
2018-09-03T04:16:35.613Z,10.43
2018-09-03T04:19:04.552Z,9.90
2018-09-03T04:21:33.400Z,11.23
2018-09-03T04:24:04.316Z,11.10
2018-09-03T04:26:33.061Z,11.00
2018-09-03T04:29:01.780Z,10.67
2018-09-03T04:31:30.549Z,10.20
2018-09-03T04:33:59.288Z,10.37
2018-09-03T04:36:28.034Z,10.37
2018-09-03T04:38:56.845Z,10.43
2018-09-03T04:41:25.858Z,10.40
2018-09-03T04:43:54.787Z,10.27
2018-09-03T04:46:23.679Z,9.90
2018-09-03T04:48:52.467Z,9.83
2018-09-03T04:51:21.289Z,12.17
2018-09-03T04:53:50.139Z,10.43
2018-09-03T04:56:18.895Z,10.43
2018-09-03T04:58:47.665Z,11.20
2018-09-03T05:01:16.655Z,10.07
2018-09-03T05:03:45.444Z,12.43
2018-09-03T05:06:14.145Z,9.90
2018-09-03T05:08:43.046Z,9.97
2018-09-03T05:11:11.920Z,9.87
2018-09-03T05:13:40.770Z,9.50
2018-09-03T05:16:09.500Z,11.23
2018-09-03T05:18:38.974Z,9.57
2018-09-03T05:21:07.675Z,8.37
2018-09-03T05:23:36.481Z,9.33
2018-09-03T05:26:05.193Z,8.63
2018-09-03T05:28:33.942Z,9.00
2018-09-03T05:32:31.818Z,8.17
2018-09-03T05:35:00.666Z,8.03
2018-09-03T05:37:29.462Z,8.60
2018-09-03T05:39:58.296Z,7.93
2018-09-03T05:42:27.079Z,8.97
2018-09-03T05:44:55.873Z,8.00
2018-09-03T05:47:24.656Z,8.60
2018-09-03T05:49:53.551Z,7.80
2018-09-03T05:52:22.333Z,9.07
2018-09-03T05:54:51.245Z,8.37
2018-09-03T05:57:20.154Z,8.27
2018-09-03T05:59:48.976Z,9.27
2018-09-03T06:02:18.713Z,8.47
2018-09-03T06:04:47.441Z,9.57
2018-09-03T06:07:16.226Z,9.07
2018-09-03T06:09:44.960Z,8.50
2018-09-03T06:12:14.580Z,8.40
2018-09-03T06:14:43.354Z,8.83
2018-09-03T06:17:12.824Z,8.77
2018-09-03T06:19:41.637Z,8.40
2018-09-03T06:22:10.433Z,8.33
2018-09-03T06:24:40.013Z,8.90
2018-09-03T06:27:10.238Z,9.37
2018-09-03T06:29:39.179Z,9.30
2018-09-03T06:32:07.841Z,8.67
2018-09-03T06:34:36.490Z,9.03
2018-09-03T06:37:05.683Z,9.17
2018-09-03T06:39:34.329Z,8.50
2018-09-03T06:42:02.930Z,9.20
2018-09-03T06:44:31.619Z,8.27
2018-09-03T06:47:00.296Z,8.97
2018-09-03T06:49:28.977Z,8.70
2018-09-03T06:51:57.674Z,9.27
2018-09-03T06:54:26.249Z,9.43
2018-09-03T06:56:55.035Z,9.83
2018-09-03T06:59:23.723Z,9.23
2018-09-03T07:01:52.446Z,10.43
2018-09-03T07:04:20.993Z,9.67
2018-09-03T07:06:49.373Z,9.37
2018-09-03T07:09:17.794Z,9.73
2018-09-03T07:11:46.225Z,10.20
2018-09-03T07:14:14.738Z,9.53
2018-09-03T07:16:43.345Z,10.20
2018-09-03T07:19:11.982Z,10.13
2018-09-03T07:21:42.009Z,9.67
2018-09-03T07:24:10.464Z,9.93
2018-09-03T07:26:39.315Z,10.13
2018-09-03T07:29:07.827Z,9.73
2018-09-03T07:31:36.226Z,10.67
2018-09-03T07:34:04.734Z,10.77
2018-09-03T07:36:33.207Z,9.97
2018-09-03T07:39:01.684Z,10.70
2018-09-03T07:41:30.188Z,10.40
2018-09-03T07:43:58.775Z,10.60
2018-09-03T07:46:27.404Z,10.20
2018-09-03T07:48:55.937Z,11.17
2018-09-03T07:51:24.407Z,11.07
2018-09-03T07:53:52.904Z,11.27
2018-09-03T07:56:21.589Z,10.23
2018-09-03T07:58:50.257Z,10.63
2018-09-03T08:01:18.856Z,10.40
2018-09-03T08:03:47.440Z,10.93
2018-09-03T08:06:16.126Z,10.50
2018-09-03T08:08:44.806Z,11.10
2018-09-03T08:11:13.508Z,11.07
2018-09-03T08:13:42.986Z,10.73
2018-09-03T08:16:12.459Z,11.47
2018-09-03T08:18:41.822Z,11.63
2018-09-03T08:21:10.452Z,10.87
2018-09-03T08:23:39.104Z,11.03
2018-09-03T08:26:07.863Z,10.63
2018-09-03T08:28:36.646Z,10.55
2018-09-03T08:31:05.805Z,10.00
2018-09-03T08:33:34.528Z,9.65
2018-09-03T08:36:03.295Z,9.40
2018-09-03T08:38:31.938Z,10.23
2018-09-03T08:41:00.785Z,10.15
2018-09-03T08:43:30.036Z,9.90
2018-09-03T08:45:59.493Z,10.72
2018-09-03T08:48:28.144Z,10.35
2018-09-03T08:50:57.758Z,9.65
2018-09-03T08:53:26.997Z,9.48
2018-09-03T08:55:55.794Z,8.93
2018-09-03T08:58:24.983Z,9.78
2018-09-03T09:00:53.763Z,10.05
2018-09-03T09:03:27.715Z,10.30
2018-09-03T09:05:56.381Z,9.53
2018-09-03T09:08:25.028Z,9.45
2018-09-03T09:10:53.713Z,9.80
2018-09-03T09:13:22.361Z,9.55
2018-09-03T09:15:51.152Z,9.38
2018-09-03T09:18:19.861Z,9.65
2018-09-03T09:20:48.681Z,9.33
2018-09-03T09:23:17.360Z,9.68
2018-09-03T09:25:46.024Z,10.18
2018-09-03T09:28:14.683Z,9.53
2018-09-03T09:30:43.934Z,9.63
2018-09-03T09:33:12.600Z,9.28
2018-09-03T09:35:41.276Z,9.00
2018-09-03T09:38:09.968Z,8.73
2018-09-03T09:40:39.650Z,9.20
2018-09-03T09:43:08.539Z,9.25
2018-09-03T09:45:37.235Z,8.83
2018-09-03T09:48:05.938Z,9.43
2018-09-03T09:50:34.538Z,9.50
2018-09-03T09:53:03.292Z,8.10
2018-09-03T09:55:32.047Z,8.90
2018-09-03T09:58:00.641Z,8.35
2018-09-03T10:00:34.568Z,8.40
2018-09-03T10:03:03.331Z,9.15
2018-09-03T10:05:32.247Z,9.28
2018-09-03T10:08:01.425Z,8.70
2018-09-03T10:10:30.199Z,9.40
2018-09-03T10:12:58.771Z,6.70
2018-09-03T10:15:27.671Z,6.83
2018-09-03T10:17:56.297Z,6.65
2018-09-03T10:20:24.981Z,7.72
2018-09-03T10:22:53.628Z,7.78
2018-09-03T10:25:22.289Z,7.33
2018-09-03T10:27:50.920Z,7.65
2018-09-03T10:30:19.638Z,7.53
2018-09-03T10:34:12.685Z,7.87
2018-09-03T10:36:41.321Z,8.00
2018-09-03T10:39:10.054Z,7.50
2018-09-03T10:41:38.619Z,8.40
2018-09-03T10:44:07.605Z,7.72
2018-09-03T10:46:36.237Z,7.72
2018-09-03T10:49:04.834Z,8.63
2018-09-03T10:51:33.877Z,8.30
2018-09-03T10:54:02.590Z,9.03
2018-09-03T10:56:31.344Z,9.40
2018-09-03T10:58:59.945Z,9.83
2018-09-03T11:01:28.537Z,9.85
2018-09-03T11:03:57.330Z,10.00
2018-09-03T11:06:26.100Z,10.30
2018-09-03T11:08:54.750Z,10.32
2018-09-03T11:11:23.363Z,10.35
2018-09-03T11:13:52.725Z,10.78
2018-09-03T11:16:21.352Z,10.43
2018-09-03T11:18:50.038Z,10.50
2018-09-03T11:21:19.628Z,10.20
2018-09-03T11:23:48.185Z,10.90
2018-09-03T11:26:16.692Z,10.37
2018-09-03T11:28:45.519Z,10.80
2018-09-03T11:31:14.195Z,11.50
2018-09-03T11:33:42.853Z,11.03
2018-09-03T11:36:11.444Z,10.80
2018-09-03T11:38:39.947Z,10.30
2018-09-03T11:41:08.516Z,10.77
2018-09-03T11:43:37.197Z,10.37
2018-09-03T11:46:05.724Z,11.07
2018-09-03T11:48:34.401Z,10.30
2018-09-03T11:51:03.112Z,10.30
2018-09-03T11:53:32.349Z,11.13
2018-09-03T11:56:00.977Z,11.53
2018-09-03T11:58:29.655Z,10.23
2018-09-03T12:01:00.033Z,10.47
2018-09-03T12:03:28.627Z,10.53
2018-09-03T12:05:57.277Z,11.07
2018-09-03T12:08:25.912Z,10.70
2018-09-03T12:10:54.628Z,11.00
2018-09-03T12:13:23.235Z,10.60
2018-09-03T12:16:24.398Z,11.30
2018-09-03T12:18:55.157Z,10.83
2018-09-03T12:21:23.841Z,10.83
2018-09-03T12:23:52.599Z,10.67
2018-09-03T12:26:21.265Z,10.57
2018-09-03T12:28:50.026Z,10.20
2018-09-03T12:31:18.867Z,9.90
2018-09-03T12:33:47.688Z,10.47
2018-09-03T12:36:16.469Z,10.40
2018-09-03T12:38:45.141Z,10.67
2018-09-03T12:41:13.851Z,10.53
2018-09-03T12:43:42.757Z,10.50
2018-09-03T12:46:11.526Z,10.30
2018-09-03T12:48:40.306Z,9.93
2018-09-03T12:51:08.961Z,10.87
2018-09-03T12:53:37.787Z,10.50
2018-09-03T12:56:06.786Z,10.77
2018-09-03T12:58:35.650Z,10.17
2018-09-03T13:01:04.343Z,10.70
2018-09-03T13:03:33.163Z,10.47
2018-09-03T13:06:01.977Z,9.97
2018-09-03T13:08:30.704Z,10.13
2018-09-03T13:10:59.558Z,10.20
2018-09-03T13:13:28.187Z,10.37
2018-09-03T13:15:56.910Z,9.73
2018-09-03T13:18:25.551Z,10.67
2018-09-03T13:20:54.252Z,10.27
2018-09-03T13:23:22.950Z,9.97
2018-09-03T13:25:51.728Z,10.07
2018-09-03T13:28:20.421Z,9.70
2018-09-03T13:30:49.172Z,10.40
2018-09-03T13:33:18.017Z,9.77
2018-09-03T13:35:46.752Z,10.00
2018-09-03T13:38:16.245Z,10.20
2018-09-03T13:40:45.031Z,10.03
2018-09-03T13:43:13.670Z,9.63
2018-09-03T13:45:42.255Z,9.67
2018-09-03T13:48:10.733Z,10.70
2018-09-03T13:50:39.294Z,10.73
2018-09-03T13:53:07.734Z,9.47
2018-09-03T13:55:36.284Z,9.33
2018-09-03T13:58:04.761Z,9.13
2018-09-03T14:00:33.400Z,9.60
2018-09-03T14:03:03.591Z,9.37
2018-09-03T14:05:32.074Z,9.33
2018-09-03T14:08:01.133Z,9.67
2018-09-03T14:10:30.323Z,9.97
2018-09-03T14:12:58.704Z,10.50
2018-09-03T14:15:27.171Z,9.97
2018-09-03T14:17:55.520Z,9.90
2018-09-03T14:20:23.883Z,9.77
2018-09-03T14:22:52.695Z,10.07
2018-09-03T14:25:21.415Z,10.37
2018-09-03T14:27:50.859Z,10.20
2018-09-03T14:30:19.425Z,10.60
2018-09-03T14:32:48.464Z,10.70
2018-09-03T14:35:17.610Z,10.30
2018-09-03T14:37:46.413Z,10.23
2018-09-03T14:40:16.322Z,10.10
2018-09-03T14:42:45.352Z,10.37
2018-09-03T14:45:15.150Z,10.23
2018-09-03T14:47:45.939Z,10.53
2018-09-03T14:50:16.604Z,9.87
2018-09-03T14:52:47.025Z,9.47
2018-09-03T14:55:15.623Z,10.67
2018-09-03T14:57:44.132Z,9.73
2018-09-03T15:00:12.675Z,10.03
2018-09-03T15:02:41.254Z,9.70
2018-09-03T15:05:10.653Z,10.23
2018-09-03T15:07:39.113Z,10.00
2018-09-03T15:10:07.948Z,10.00
2018-09-03T15:12:36.518Z,9.33
2018-09-03T15:15:05.323Z,10.10
2018-09-03T15:17:33.987Z,9.37
2018-09-03T15:20:02.502Z,9.43
2018-09-03T15:22:30.952Z,9.37
2018-09-03T15:24:59.436Z,9.70
2018-09-03T15:27:28.286Z,9.13
2018-09-03T15:29:56.802Z,9.63
2018-09-03T15:32:25.112Z,9.50
2018-09-03T15:34:53.664Z,9.27
2018-09-03T15:37:22.795Z,9.03
2018-09-03T15:39:51.265Z,9.23
2018-09-03T15:42:19.693Z,8.93
2018-09-03T15:44:49.021Z,8.70
2018-09-03T15:47:17.469Z,9.60
2018-09-03T15:49:45.972Z,9.77
2018-09-03T15:52:14.544Z,9.07
2018-09-03T15:54:43.301Z,9.63
2018-09-03T15:57:11.945Z,9.00
2018-09-03T15:59:42.004Z,8.73
2018-09-03T16:02:11.264Z,9.00
2018-09-03T16:04:39.756Z,9.20
2018-09-03T16:07:09.057Z,8.70
2018-09-03T16:09:37.732Z,9.20
2018-09-03T16:12:06.525Z,9.20
2018-09-03T16:14:34.955Z,9.17
2018-09-03T16:17:03.506Z,9.23
2018-09-03T16:19:31.935Z,9.57
2018-09-03T16:22:00.454Z,9.33
2018-09-03T16:24:28.912Z,8.70
2018-09-03T16:26:57.415Z,9.37
2018-09-03T16:29:26.162Z,9.40
2018-09-03T16:31:54.500Z,9.67
2018-09-03T16:34:22.984Z,9.13
2018-09-03T16:36:51.990Z,9.80
2018-09-03T16:39:20.508Z,9.73
2018-09-03T16:41:48.948Z,8.67
2018-09-03T16:44:17.668Z,9.77
2018-09-03T16:46:46.111Z,9.83
2018-09-03T16:49:14.580Z,11.67
2018-09-03T16:51:43.639Z,9.37
2018-09-03T16:54:13.531Z,9.40
2018-09-03T16:56:42.209Z,9.50
2018-09-03T16:59:10.732Z,9.70
2018-09-03T17:01:39.351Z,10.30
2018-09-03T17:04:07.980Z,9.80
2018-09-03T17:06:38.271Z,10.00
2018-09-03T17:09:07.636Z,9.70
2018-09-03T17:11:36.659Z,9.97
2018-09-03T17:14:05.186Z,11.40
2018-09-03T17:16:34.007Z,11.10
2018-09-03T17:19:02.458Z,9.23
2018-09-03T17:21:30.962Z,10.43
2018-09-03T17:23:59.468Z,10.57
2018-09-03T17:26:29.139Z,10.03
2018-09-03T17:28:57.797Z,9.93
2018-09-03T17:31:26.132Z,11.37
2018-09-03T17:33:54.656Z,9.93
2018-09-03T17:36:23.304Z,9.80
2018-09-03T17:38:52.629Z,9.57
2018-09-03T17:41:21.255Z,10.63
2018-09-03T17:43:49.758Z,9.60
2018-09-03T17:46:18.242Z,10.00
2018-09-03T17:48:46.667Z,9.43
2018-09-03T17:51:15.159Z,8.80
2018-09-03T17:53:43.695Z,9.27
2018-09-03T17:56:12.137Z,9.00
2018-09-03T17:58:40.725Z,8.47
2018-09-03T18:01:09.413Z,7.37
2018-09-03T18:03:37.963Z,7.60
2018-09-03T18:06:07.466Z,7.00
2018-09-03T18:08:36.053Z,7.30
2018-09-03T18:11:05.150Z,7.57
2018-09-03T18:13:33.512Z,7.50
2018-09-03T18:16:01.862Z,7.17
2018-09-03T18:18:30.231Z,7.80
2018-09-03T18:20:58.761Z,7.50
2018-09-03T18:23:27.103Z,7.67
2018-09-03T18:25:55.428Z,7.60
2018-09-03T18:28:23.814Z,7.70
2018-09-03T18:30:52.609Z,7.40
2018-09-03T18:33:21.415Z,8.07
2018-09-03T18:35:49.970Z,7.83
2018-09-03T18:38:19.421Z,7.60
2018-09-03T18:40:48.497Z,7.40
2018-09-03T18:43:17.011Z,7.53
2018-09-03T18:45:45.590Z,7.60
2018-09-03T18:48:14.200Z,8.90
2018-09-03T18:50:43.524Z,8.53
2018-09-03T18:53:12.401Z,9.10
2018-09-03T18:55:41.164Z,8.53
2018-09-03T18:58:10.012Z,8.53
2018-09-03T19:00:39.469Z,7.77
2018-09-03T19:03:08.172Z,7.93
2018-09-03T19:05:36.970Z,7.83
2018-09-03T19:08:06.189Z,8.40
2018-09-03T19:10:34.689Z,8.23
2018-09-03T19:13:03.431Z,7.90
2018-09-03T19:15:32.102Z,8.77
2018-09-03T19:18:00.864Z,8.20
2018-09-03T19:20:29.218Z,7.70
2018-09-03T19:22:57.831Z,6.70
2018-09-03T19:25:26.500Z,6.80
2018-09-03T19:27:55.102Z,7.30
2018-09-03T19:30:24.255Z,7.23
2018-09-03T19:32:52.851Z,7.17
2018-09-03T19:35:22.402Z,7.07
2018-09-03T19:37:50.752Z,7.27
2018-09-03T19:40:19.128Z,7.60
2018-09-03T19:42:47.497Z,8.57
2018-09-03T19:45:15.886Z,8.17
2018-09-03T19:47:45.104Z,8.20
2018-09-03T19:50:13.628Z,7.93
2018-09-03T19:52:42.170Z,8.27
2018-09-03T19:55:11.417Z,7.77
2018-09-03T19:57:40.376Z,8.33
2018-09-03T20:00:09.603Z,9.00
2018-09-03T20:02:38.091Z,7.87
2018-09-03T20:05:06.779Z,8.83
2018-09-03T20:07:35.895Z,8.20
2018-09-03T20:10:05.343Z,8.47
2018-09-03T20:12:33.874Z,10.10
2018-09-03T20:15:03.847Z,9.67
2018-09-03T20:17:32.880Z,8.53
2018-09-03T20:20:01.463Z,8.37
2018-09-03T20:22:30.933Z,8.93
2018-09-03T20:25:00.657Z,8.23
2018-09-03T20:27:30.102Z,8.67
2018-09-03T20:29:59.037Z,9.20
2018-09-03T20:32:27.781Z,8.60
2018-09-03T20:34:57.245Z,8.10
2018-09-03T20:37:26.304Z,8.33
2018-09-03T20:39:55.110Z,9.23
2018-09-03T20:42:23.835Z,8.87
2018-09-03T20:44:52.604Z,8.37
2018-09-03T20:47:22.009Z,9.13
2018-09-03T20:49:50.567Z,8.00
2018-09-03T20:52:19.264Z,7.57
2018-09-03T20:54:48.618Z,8.60
2018-09-03T20:57:17.971Z,8.10
2018-09-03T20:59:47.004Z,8.53
2018-09-03T21:02:16.007Z,8.13
2018-09-03T21:04:45.695Z,8.77
2018-09-03T21:07:14.692Z,8.47
2018-09-03T21:09:43.417Z,9.40
2018-09-03T21:12:12.020Z,8.83
2018-09-03T21:14:40.788Z,8.67
2018-09-03T21:17:09.216Z,8.00
2018-09-03T21:19:37.554Z,7.00
2018-09-03T21:22:06.076Z,7.43
2018-09-03T21:24:34.419Z,7.30
2018-09-03T21:27:02.783Z,6.83
2018-09-03T21:29:31.115Z,6.53
2018-09-03T21:31:59.905Z,7.57
2018-09-03T21:34:28.242Z,6.83
2018-09-03T21:36:57.121Z,6.70
2018-09-03T21:39:25.468Z,7.43
2018-09-03T21:41:53.796Z,7.07
2018-09-03T21:44:22.163Z,6.80
2018-09-03T21:46:51.226Z,6.47
2018-09-03T21:49:19.498Z,6.00
2018-09-03T21:51:47.828Z,7.03
2018-09-03T21:54:16.184Z,6.30
2018-09-03T21:56:44.557Z,6.07
2018-09-03T21:59:12.940Z,7.10
2018-09-03T22:01:41.322Z,8.10
2018-09-03T22:04:09.712Z,7.67
2018-09-03T22:06:38.106Z,7.03
2018-09-03T22:09:07.290Z,5.33
2018-09-03T22:11:35.657Z,6.50
2018-09-03T22:14:04.111Z,6.70
2018-09-03T22:16:32.472Z,7.00
2018-09-03T22:19:00.868Z,6.43
2018-09-03T22:21:29.242Z,6.17
2018-09-03T22:23:57.569Z,6.57
2018-09-03T22:26:25.944Z,6.30
2018-09-03T22:28:54.323Z,6.17
2018-09-03T22:31:22.716Z,6.10
2018-09-03T22:33:51.149Z,6.90
2018-09-03T22:36:19.488Z,6.10
2018-09-03T22:38:47.809Z,6.27
2018-09-03T22:41:16.144Z,6.27
2018-09-03T22:43:44.554Z,6.80
2018-09-03T22:46:13.172Z,5.93
2018-09-03T22:48:41.553Z,6.67
2018-09-03T22:51:09.934Z,6.57
2018-09-03T22:53:38.278Z,5.90
2018-09-03T22:56:06.691Z,5.37
2018-09-03T22:58:35.037Z,5.87
2018-09-03T23:01:03.450Z,5.43
2018-09-03T23:03:31.790Z,5.60
2018-09-03T23:06:00.170Z,6.23
2018-09-03T23:08:28.552Z,5.83
2018-09-03T23:10:56.941Z,5.20
2018-09-03T23:13:25.321Z,5.30
2018-09-03T23:15:54.129Z,5.40
2018-09-03T23:18:23.842Z,5.30
2018-09-03T23:20:52.316Z,5.37
2018-09-03T23:23:20.634Z,5.30
2018-09-03T23:25:49.192Z,5.43
2018-09-03T23:28:17.531Z,5.60
2018-09-03T23:30:45.847Z,5.67
2018-09-03T23:33:14.216Z,5.43
2018-09-03T23:35:42.575Z,5.00
2018-09-03T23:38:10.894Z,5.27
2018-09-03T23:40:39.268Z,5.47
2018-09-03T23:43:07.619Z,5.27
2018-09-03T23:45:35.998Z,5.07
2018-09-03T23:48:04.353Z,5.33
2018-09-03T23:50:32.712Z,5.10
2018-09-03T23:53:01.267Z,5.40
2018-09-03T23:55:29.632Z,5.60
2018-09-03T23:57:58.024Z,4.83
